Time;durP1;ratioP1;P1;durP2;ratioP2;P2;SDS_P1;SDS_P2;PMS_P1;PMS_P2;Temp;Humidity;BMP_temperature;BMP_pressure;BME280_temperature;BME280_humidity;BME280_pressure;Samples;Min_cycle;Max_cycle;Signal;HPM_P1;HPM_P2
2021/12/29 00:01:53;;;;;;;39.67;15.77;;;2.20;99.90;;;;;;5006376;28;20022;-85
2021/12/29 00:04:19;;;;;;;49.22;17.35;;;2.20;99.90;;;;;;5009051;28;20065;-88
2021/12/29 00:06:48;;;;;;;46.00;17.25;;;2.20;99.90;;;;;;5009058;28;20098;-89
2021/12/29 00:09:17;;;;;;;68.50;19.27;;;2.20;99.90;;;;;;5006563;28;20061;-89
2021/12/29 00:11:45;;;;;;;62.88;19.90;;;2.20;99.90;;;;;;5006195;28;20073;-88
2021/12/29 00:14:13;;;;;;;64.32;19.65;;;2.20;99.90;;;;;;4989416;28;20109;-88
2021/12/29 00:16:41;;;;;;;52.33;18.48;;;2.20;99.90;;;;;;5004467;28;20031;-87
2021/12/29 00:19:08;;;;;;;56.30;20.30;;;2.20;99.90;;;;;;5012050;28;20118;-87
2021/12/29 00:21:36;;;;;;;53.28;17.92;;;2.20;99.90;;;;;;5005419;28;20023;-90
2021/12/29 00:24:05;;;;;;;52.50;18.33;;;2.20;99.90;;;;;;5005959;28;20090;-89
2021/12/29 00:26:32;;;;;;;60.42;18.33;;;2.20;99.90;;;;;;5003767;28;20019;-87
2021/12/29 00:29:01;;;;;;;54.25;19.30;;;2.20;99.90;;;;;;4986729;28;20178;-86
2021/12/29 00:31:29;;;;;;;59.13;19.15;;;2.20;99.90;;;;;;5011094;28;20018;-83
2021/12/29 00:34:13;;;;;;;60.63;18.98;;;2.20;99.90;;;;;;5015604;28;20045;-86
2021/12/29 00:36:57;;;;;;;62.45;19.73;;;2.10;99.90;;;;;;5020033;28;20049;-88
2021/12/29 00:39:42;;;;;;;59.45;18.98;;;2.20;99.90;;;;;;5014542;28;20037;-88
2021/12/29 00:42:27;;;;;;;50.55;17.60;;;2.20;99.90;;;;;;5012616;28;20041;-86
2021/12/29 00:45:14;;;;;;;55.63;19.75;;;2.20;99.90;;;;;;5011907;28;20053;-88
2021/12/29 00:47:40;;;;;;;60.17;19.90;;;2.20;99.90;;;;;;5009975;28;20038;-87
2021/12/29 00:50:10;;;;;;;56.28;19.23;;;2.10;99.90;;;;;;5016750;28;20391;-88
2021/12/29 00:52:36;;;;;;;63.97;21.02;;;2.20;99.90;;;;;;5009036;28;20031;-87
2021/12/29 00:55:03;;;;;;;62.53;19.70;;;2.20;99.90;;;;;;5008866;28;20061;-85
2021/12/29 00:57:31;;;;;;;61.67;20.75;;;2.20;99.90;;;;;;5013961;28;20030;-86
2021/12/29 00:59:57;;;;;;;58.85;20.10;;;2.20;99.90;;;;;;4996445;28;20030;-88
2021/12/29 01:02:23;;;;;;;61.20;20.23;;;2.20;99.90;;;;;;5007912;28;20050;-88
2021/12/29 01:05:01;;;;;;;65.85;20.08;;;2.20;99.90;;;;;;5008192;28;20537;-86
2021/12/29 01:07:29;;;;;;;56.75;19.75;;;2.20;99.90;;;;;;5010515;28;20038;-84
2021/12/29 01:09:55;;;;;;;66.47;21.88;;;2.20;99.90;;;;;;5011921;28;20032;-90
2021/12/29 01:12:24;;;;;;;70.35;20.70;;;2.30;99.90;;;;;;5017321;28;20096;-87
2021/12/29 01:15:02;;;;;;;71.55;22.58;;;2.30;99.90;;;;;;5010398;28;20058;-87
2021/12/29 01:17:31;;;;;;;65.60;21.60;;;2.30;99.90;;;;;;5012012;28;20038;-89
2021/12/29 01:20:03;;;;;;;68.35;20.45;;;2.20;99.90;;;;;;5014703;28;20026;-86
2021/12/29 01:22:29;;;;;;;65.97;20.27;;;2.10;99.90;;;;;;5012716;28;20546;-88
2021/12/29 01:24:55;;;;;;;79.43;22.90;;;2.10;99.90;;;;;;5008185;28;20034;-85
2021/12/29 01:27:21;;;;;;;66.53;20.23;;;2.10;99.90;;;;;;5013812;28;20007;-89
2021/12/29 01:29:52;;;;;;;73.55;22.40;;;2.10;99.90;;;;;;5018644;28;20014;-84
2021/12/29 01:32:18;;;;;;;78.18;22.13;;;2.10;99.90;;;;;;5017488;28;20042;-86
2021/12/29 01:34:47;;;;;;;72.95;22.85;;;2.10;99.90;;;;;;4999945;28;20022;-86
2021/12/29 01:37:13;;;;;;;68.10;23.10;;;2.10;99.90;;;;;;5004457;28;20030;-87
2021/12/29 01:39:38;;;;;;;68.90;21.95;;;2.10;99.90;;;;;;5006582;28;20041;-87
2021/12/29 01:42:04;;;;;;;65.00;21.23;;;2.10;99.90;;;;;;4982073;28;20030;-88
2021/12/29 01:44:31;;;;;;;63.58;19.38;;;2.20;99.90;;;;;;4988086;28;20022;-89
2021/12/29 01:46:58;;;;;;;73.93;21.17;;;2.20;99.90;;;;;;5002057;28;20457;-85
2021/12/29 01:49:24;;;;;;;69.60;21.02;;;2.20;99.90;;;;;;5010482;28;20070;-83
2021/12/29 01:54:45;;;;;;;65.13;20.85;;;2.30;99.90;;;;;;5006654;28;20038;-87
2021/12/29 01:57:11;;;;;;;64.00;21.08;;;2.30;99.90;;;;;;5007853;28;20053;-89
2021/12/29 01:59:38;;;;;;;69.22;22.13;;;2.30;99.90;;;;;;5015444;28;20062;-88
2021/12/29 02:02:05;;;;;;;66.88;22.20;;;2.30;99.90;;;;;;5015555;28;20090;-86
2021/12/29 02:04:31;;;;;;;70.85;21.85;;;2.30;99.90;;;;;;4991237;28;20530;-87
2021/12/29 02:06:58;;;;;;;75.85;21.98;;;2.30;99.90;;;;;;5011740;23;20065;-82
2021/12/29 02:09:23;;;;;;;79.07;22.33;;;2.30;99.90;;;;;;4987439;28;20039;-83
2021/12/29 02:11:50;;;;;;;64.75;20.92;;;2.30;99.90;;;;;;4981524;28;20388;-84
2021/12/29 02:14:16;;;;;;;78.50;22.25;;;2.30;99.90;;;;;;4985355;28;20019;-84
2021/12/29 02:16:42;;;;;;;75.05;21.42;;;2.20;99.90;;;;;;4996095;28;20430;-84
2021/12/29 02:19:12;;;;;;;76.20;22.83;;;2.20;99.90;;;;;;4983416;28;20035;-84
2021/12/29 02:21:43;;;;;;;71.97;20.60;;;2.20;99.90;;;;;;4986605;28;20053;-81
2021/12/29 02:26:38;;;;;;;65.20;21.98;;;2.30;99.90;;;;;;4999922;28;20083;-82
2021/12/29 02:29:07;;;;;;;63.47;21.27;;;2.30;99.90;;;;;;4999785;28;20026;-85
2021/12/29 02:31:34;;;;;;;69.30;21.15;;;2.30;99.90;;;;;;5000002;28;20071;-83
2021/12/29 02:34:00;;;;;;;67.93;20.05;;;2.50;99.90;;;;;;4999695;28;20022;-84
2021/12/29 02:36:28;;;;;;;65.28;21.45;;;2.60;99.90;;;;;;5000025;28;20050;-82
2021/12/29 02:38:55;;;;;;;69.80;21.73;;;2.50;99.90;;;;;;4999666;28;20031;-83
2021/12/29 02:41:26;;;;;;;72.75;20.60;;;2.50;99.90;;;;;;4998917;28;20030;-80
2021/12/29 02:43:59;;;;;;;64.95;20.23;;;2.50;99.90;;;;;;4999368;28;20015;-82
2021/12/29 02:46:27;;;;;;;67.45;21.10;;;2.60;99.90;;;;;;4999263;28;20090;-82
2021/12/29 02:49:02;;;;;;;75.18;20.98;;;2.50;99.90;;;;;;4999216;28;20014;-82
2021/12/29 02:51:31;;;;;;;70.95;21.80;;;2.50;99.90;;;;;;4999066;28;20058;-84
2021/12/29 02:53:57;;;;;;;60.85;20.65;;;2.40;99.90;;;;;;4998651;28;20033;-83
2021/12/29 02:56:25;;;;;;;68.05;20.80;;;2.50;99.90;;;;;;4999179;28;20034;-84
2021/12/29 02:58:51;;;;;;;71.00;21.27;;;2.40;99.90;;;;;;4999065;28;20006;-82
2021/12/29 03:01:17;;;;;;;67.85;20.25;;;2.30;99.90;;;;;;4982170;28;20025;-82
2021/12/29 03:03:43;;;;;;;59.65;20.25;;;2.40;99.90;;;;;;4999019;28;20018;-80
2021/12/29 03:06:10;;;;;;;75.25;21.95;;;2.40;99.90;;;;;;4998130;28;20034;-83
2021/12/29 03:08:37;;;;;;;64.35;20.83;;;2.40;99.90;;;;;;4997169;28;20023;-81
2021/12/29 03:11:04;;;;;;;72.47;21.60;;;2.30;99.90;;;;;;4996864;28;20043;-83
2021/12/29 03:13:33;;;;;;;66.28;21.90;;;2.30;99.90;;;;;;4962369;28;20537;-83
2021/12/29 03:15:59;;;;;;;75.75;22.65;;;2.30;99.90;;;;;;4989663;28;20055;-83
2021/12/29 03:18:25;;;;;;;73.85;22.52;;;2.20;99.90;;;;;;4989895;28;20022;-83
2021/12/29 03:20:51;;;;;;;89.30;24.55;;;2.30;99.90;;;;;;4992006;28;20019;-82
2021/12/29 03:23:18;;;;;;;78.75;22.98;;;2.20;99.90;;;;;;4993983;28;20050;-82
2021/12/29 03:25:47;;;;;;;75.60;21.27;;;2.20;99.90;;;;;;4997856;28;20082;-83
2021/12/29 03:28:15;;;;;;;73.95;22.90;;;2.20;99.90;;;;;;4998387;28;20035;-84
2021/12/29 03:30:43;;;;;;;75.47;22.35;;;2.20;99.90;;;;;;4997250;28;20022;-83
2021/12/29 03:33:09;;;;;;;86.90;24.98;;;2.30;99.90;;;;;;4996155;28;20106;-85
2021/12/29 03:35:48;;;;;;;82.85;22.45;;;2.20;99.90;;;;;;4997948;28;20031;-82
2021/12/29 03:38:20;;;;;;;72.95;22.42;;;2.20;99.90;;;;;;4998670;28;20038;-84
2021/12/29 03:40:46;;;;;;;69.97;20.75;;;2.20;99.90;;;;;;4998191;28;20126;-81
2021/12/29 03:43:13;;;;;;;63.70;20.38;;;2.20;99.90;;;;;;4996312;28;20054;-82
2021/12/29 03:45:42;;;;;;;75.95;22.42;;;2.20;99.90;;;;;;4996408;28;20086;-82
2021/12/29 03:48:09;;;;;;;77.70;21.52;;;2.20;99.90;;;;;;4993816;28;20070;-84
2021/12/29 03:50:36;;;;;;;58.97;19.27;;;2.20;99.90;;;;;;4997993;28;20023;-82
2021/12/29 03:53:03;;;;;;;54.20;17.90;;;2.20;99.90;;;;;;4999495;28;20030;-82
2021/12/29 03:55:29;;;;;;;60.08;19.50;;;2.10;99.90;;;;;;5000047;28;20023;-80
2021/12/29 03:57:55;;;;;;;57.67;19.02;;;2.20;99.90;;;;;;4995753;28;20035;-82
2021/12/29 04:00:21;;;;;;;61.75;18.60;;;2.20;99.90;;;;;;4997234;28;20014;-81
2021/12/29 04:02:48;;;;;;;53.75;17.23;;;2.10;99.90;;;;;;4998235;28;20035;-83
2021/12/29 04:05:17;;;;;;;52.47;18.95;;;2.10;99.90;;;;;;4995230;28;20090;-83
2021/12/29 04:07:43;;;;;;;48.85;17.50;;;2.10;99.90;;;;;;4991685;28;20038;-81
2021/12/29 04:10:10;;;;;;;56.28;18.60;;;2.20;99.90;;;;;;4992533;28;20027;-83
2021/12/29 04:12:39;;;;;;;45.50;16.88;;;2.20;99.90;;;;;;4991415;28;20098;-83
2021/12/29 04:15:07;;;;;;;48.15;15.10;;;2.20;99.90;;;;;;4995749;28;20025;-83
2021/12/29 04:17:37;;;;;;;46.08;15.45;;;2.20;99.90;;;;;;4997631;28;20065;-82
2021/12/29 04:22:53;;;;;;;35.85;13.13;;;2.20;99.90;;;;;;4997592;28;20041;-83
2021/12/29 04:25:24;;;;;;;41.63;14.57;;;2.20;99.90;;;;;;4992694;28;20027;-84
2021/12/29 04:27:54;;;;;;;33.03;13.52;;;2.20;99.90;;;;;;4991621;28;20131;-80
2021/12/29 04:30:21;;;;;;;38.60;14.20;;;2.20;99.90;;;;;;4994495;28;20035;-83
2021/12/29 04:32:47;;;;;;;30.85;12.73;;;2.20;99.90;;;;;;4975272;28;20034;-83
2021/12/29 04:35:13;;;;;;;38.05;14.32;;;2.10;99.90;;;;;;4992479;28;20058;-83
2021/12/29 04:37:39;;;;;;;36.38;13.75;;;2.20;99.90;;;;;;4990040;28;20023;-82
2021/12/29 04:40:06;;;;;;;32.83;13.32;;;2.30;99.90;;;;;;4990641;28;20031;-84
2021/12/29 04:42:33;;;;;;;30.38;11.48;;;2.30;99.90;;;;;;4992270;28;20049;-82
2021/12/29 04:44:58;;;;;;;30.63;12.32;;;2.30;99.90;;;;;;4993806;28;20058;-83
2021/12/29 04:47:29;;;;;;;31.40;12.20;;;2.30;99.90;;;;;;4993032;28;20065;-83
2021/12/29 04:49:59;;;;;;;33.03;12.38;;;2.30;99.90;;;;;;4995109;28;20050;-82
2021/12/29 04:52:25;;;;;;;31.50;12.35;;;2.30;99.90;;;;;;4994066;28;20039;-82
2021/12/29 04:54:51;;;;;;;29.33;12.23;;;2.30;99.90;;;;;;4993672;28;20047;-82
2021/12/29 04:57:17;;;;;;;31.38;11.73;;;2.30;99.90;;;;;;4993266;28;20038;-81
2021/12/29 04:59:43;;;;;;;30.92;11.88;;;2.40;99.90;;;;;;4993395;28;20023;-83
2021/12/29 05:02:10;;;;;;;30.90;12.35;;;2.40;99.90;;;;;;4992424;28;20039;-82
2021/12/29 05:04:45;;;;;;;26.77;11.40;;;2.30;99.90;;;;;;4992312;28;20031;-83
2021/12/29 05:09:59;;;;;;;31.00;12.25;;;2.40;99.90;;;;;;4995990;28;20059;-83
2021/12/29 05:12:25;;;;;;;33.53;13.52;;;2.40;99.90;;;;;;4999288;28;20030;-82
2021/12/29 05:14:51;;;;;;;30.45;12.32;;;2.40;99.90;;;;;;4997546;28;20030;-81
2021/12/29 05:17:17;;;;;;;30.05;12.50;;;2.40;99.90;;;;;;4989037;28;20022;-82
2021/12/29 05:19:42;;;;;;;31.92;12.07;;;2.50;99.90;;;;;;4999673;28;20255;-81
2021/12/29 05:22:08;;;;;;;26.15;11.02;;;2.40;99.90;;;;;;4995332;28;20082;-84
2021/12/29 05:24:34;;;;;;;32.67;12.45;;;2.50;99.90;;;;;;4982859;28;20090;-85
2021/12/29 05:27:01;;;;;;;26.67;11.27;;;2.40;99.90;;;;;;4982139;28;20026;-84
2021/12/29 05:29:28;;;;;;;31.10;12.70;;;2.50;99.90;;;;;;4982068;28;20397;-84
2021/12/29 05:31:53;;;;;;;35.42;12.27;;;2.50;99.90;;;;;;4980990;28;20495;-84
2021/12/29 05:34:19;;;;;;;27.83;11.88;;;2.50;99.90;;;;;;4980457;28;20139;-84
2021/12/29 05:36:45;;;;;;;28.55;12.10;;;2.50;99.90;;;;;;4981355;28;20030;-83
2021/12/29 05:39:11;;;;;;;28.33;12.18;;;2.40;99.90;;;;;;4980348;28;20031;-84
2021/12/29 05:41:37;;;;;;;32.40;12.57;;;2.40;99.90;;;;;;4984657;28;20038;-84
2021/12/29 05:44:03;;;;;;;30.70;11.98;;;2.40;99.90;;;;;;4981814;28;20030;-84
2021/12/29 05:46:29;;;;;;;28.17;11.18;;;2.50;99.90;;;;;;4981034;28;20509;-84
2021/12/29 05:48:55;;;;;;;33.85;13.13;;;2.50;99.90;;;;;;4979767;28;20047;-83
2021/12/29 05:51:20;;;;;;;32.53;13.48;;;2.50;99.90;;;;;;4979598;28;20083;-84
2021/12/29 05:53:46;;;;;;;35.30;12.60;;;2.50;99.90;;;;;;4979949;28;20046;-83
2021/12/29 05:56:12;;;;;;;33.42;13.48;;;2.50;99.90;;;;;;4982322;28;20407;-85
2021/12/29 05:58:38;;;;;;;32.65;13.02;;;2.50;99.90;;;;;;4981877;28;20035;-81
2021/12/29 06:01:04;;;;;;;32.80;13.23;;;2.60;99.90;;;;;;4982721;28;20054;-82
2021/12/29 06:03:30;;;;;;;38.78;13.43;;;2.60;99.90;;;;;;4999256;28;20031;-83
2021/12/29 06:05:56;;;;;;;38.33;13.85;;;2.60;99.90;;;;;;4999092;28;20015;-82
2021/12/29 06:08:22;;;;;;;33.00;14.05;;;2.60;99.90;;;;;;4988084;28;20125;-84
2021/12/29 06:10:48;;;;;;;34.05;13.23;;;2.60;99.90;;;;;;4997155;28;20052;-83
2021/12/29 06:13:14;;;;;;;35.80;14.00;;;2.60;99.90;;;;;;4992496;28;20046;-84
2021/12/29 06:15:40;;;;;;;33.80;13.07;;;2.60;99.90;;;;;;4983374;28;20038;-84
2021/12/29 06:18:06;;;;;;;35.80;13.65;;;2.60;99.90;;;;;;4982559;28;20347;-85
2021/12/29 06:20:32;;;;;;;38.72;15.13;;;2.70;99.90;;;;;;4993416;28;20034;-82
2021/12/29 06:22:57;;;;;;;38.22;14.20;;;2.70;99.90;;;;;;4997470;28;20027;-82
2021/12/29 06:25:23;;;;;;;31.42;12.90;;;2.70;99.90;;;;;;4992472;28;20115;-82
2021/12/29 06:27:50;;;;;;;33.90;14.05;;;2.70;99.90;;;;;;4990328;28;20026;-83
2021/12/29 06:30:17;;;;;;;32.55;13.10;;;2.70;99.90;;;;;;4997050;28;20030;-81
2021/12/29 06:32:44;;;;;;;31.65;13.27;;;2.80;99.90;;;;;;4987899;28;20497;-83
2021/12/29 06:35:12;;;;;;;36.45;14.07;;;2.80;99.90;;;;;;4988304;28;20112;-83
2021/12/29 06:37:37;;;;;;;33.47;14.10;;;2.80;99.90;;;;;;4982272;28;20487;-83
2021/12/29 06:40:05;;;;;;;35.65;14.52;;;2.80;99.90;;;;;;4981224;28;20027;-83
2021/12/29 06:42:30;;;;;;;35.70;14.23;;;2.80;99.90;;;;;;4983974;28;20077;-84
2021/12/29 06:44:57;;;;;;;35.30;13.52;;;2.80;99.90;;;;;;4997122;28;20011;-83
2021/12/29 06:47:23;;;;;;;38.47;15.45;;;2.70;99.90;;;;;;4983963;28;20046;-86
2021/12/29 06:49:49;;;;;;;37.22;15.07;;;2.70;99.90;;;;;;4982786;28;20031;-84
2021/12/29 06:52:15;;;;;;;33.92;14.77;;;2.80;99.90;;;;;;4986379;28;20035;-83
2021/12/29 06:54:41;;;;;;;37.03;14.48;;;2.80;99.90;;;;;;4981010;28;20049;-82
2021/12/29 06:57:07;;;;;;;37.47;14.93;;;2.80;99.90;;;;;;4981531;28;20034;-84
2021/12/29 06:59:34;;;;;;;36.75;14.60;;;2.80;99.90;;;;;;4981476;28;20025;-83
2021/12/29 07:02:00;;;;;;;35.75;15.35;;;2.80;99.90;;;;;;4984406;28;20035;-83
2021/12/29 07:04:26;;;;;;;38.08;14.85;;;2.70;99.90;;;;;;4984288;28;20070;-85
2021/12/29 07:06:52;;;;;;;38.80;16.00;;;2.70;99.90;;;;;;4991996;28;20054;-84
2021/12/29 07:09:19;;;;;;;38.97;15.25;;;2.70;99.90;;;;;;4993221;28;20034;-82
2021/12/29 07:11:45;;;;;;;36.83;15.45;;;2.70;99.90;;;;;;4993462;28;20039;-83
2021/12/29 07:14:11;;;;;;;43.33;16.73;;;2.80;99.90;;;;;;4994385;28;20027;-82
2021/12/29 07:16:38;;;;;;;36.50;15.45;;;2.80;99.90;;;;;;4994336;28;20087;-83
2021/12/29 07:19:05;;;;;;;43.67;18.50;;;2.80;99.90;;;;;;4991023;28;20057;-83
2021/12/29 07:21:31;;;;;;;45.38;17.70;;;2.80;99.90;;;;;;4990178;28;20030;-83
2021/12/29 07:23:57;;;;;;;43.25;17.65;;;2.80;99.90;;;;;;4989652;28;20027;-85
2021/12/29 07:26:24;;;;;;;40.00;15.50;;;2.90;99.90;;;;;;4987780;28;20031;-85
2021/12/29 07:28:51;;;;;;;35.80;15.63;;;2.90;99.90;;;;;;4986098;28;20090;-85
2021/12/29 07:31:19;;;;;;;49.00;18.50;;;2.90;99.90;;;;;;4990348;28;20035;-84
2021/12/29 07:33:45;;;;;;;43.10;17.15;;;2.90;99.90;;;;;;4989698;28;20030;-84
2021/12/29 07:36:11;;;;;;;42.70;16.42;;;2.90;99.90;;;;;;4987136;28;20039;-83
2021/12/29 07:38:38;;;;;;;38.95;16.85;;;2.90;99.90;;;;;;4984109;28;20391;-85
2021/12/29 07:41:04;;;;;;;38.70;15.05;;;2.80;99.90;;;;;;4986378;28;20085;-83
2021/12/29 07:43:30;;;;;;;39.00;16.67;;;2.90;99.90;;;;;;4986761;28;20023;-84
2021/12/29 07:45:56;;;;;;;42.72;15.48;;;2.90;99.90;;;;;;4988040;28;20035;-86
2021/12/29 07:48:28;;;;;;;40.72;15.60;;;2.90;99.90;;;;;;4988872;28;20030;-83
2021/12/29 07:50:54;;;;;;;38.63;15.85;;;2.90;99.90;;;;;;4988819;28;20172;-85
2021/12/29 07:53:20;;;;;;;39.97;15.38;;;2.90;99.90;;;;;;4987550;28;20031;-87
2021/12/29 07:55:46;;;;;;;33.10;14.60;;;3.00;99.90;;;;;;4987030;28;20035;-87
2021/12/29 07:58:12;;;;;;;37.15;15.93;;;3.00;99.90;;;;;;4986072;28;20034;-87
2021/12/29 08:00:38;;;;;;;37.95;16.17;;;3.00;99.90;;;;;;4967166;28;20390;-84
2021/12/29 08:03:04;;;;;;;36.63;15.80;;;3.00;99.90;;;;;;4985143;28;20109;-87
2021/12/29 08:05:30;;;;;;;36.25;14.95;;;3.10;99.90;;;;;;4982995;28;20102;-86
2021/12/29 08:07:55;;;;;;;39.30;15.85;;;3.20;99.90;;;;;;4982238;28;20100;-85
2021/12/29 08:10:21;;;;;;;49.17;20.90;;;3.20;99.90;;;;;;5011883;23;20043;-84
2021/12/29 08:12:47;;;;;;;34.55;15.30;;;3.30;99.90;;;;;;4996431;28;20039;-84
2021/12/29 08:15:14;;;;;;;42.28;17.83;;;3.30;99.90;;;;;;4993469;28;20086;-84
2021/12/29 08:17:41;;;;;;;37.20;15.73;;;3.40;99.90;;;;;;4991118;28;20054;-85
2021/12/29 08:20:08;;;;;;;41.70;15.38;;;3.40;99.90;;;;;;4986899;28;20030;-82
2021/12/29 08:22:34;;;;;;;32.92;14.82;;;3.40;99.90;;;;;;4988961;28;20026;-83
2021/12/29 08:25:00;;;;;;;34.92;15.20;;;3.50;99.90;;;;;;4982350;28;20033;-82
2021/12/29 08:27:26;;;;;;;38.30;15.02;;;3.60;99.90;;;;;;4993504;28;20494;-83
2021/12/29 08:29:52;;;;;;;37.13;16.08;;;3.70;99.90;;;;;;4987637;28;20083;-83
2021/12/29 08:32:18;;;;;;;34.55;14.52;;;3.80;99.90;;;;;;4990588;28;20545;-83
2021/12/29 08:34:44;;;;;;;36.15;14.73;;;3.70;99.90;;;;;;4985744;28;20069;-82
2021/12/29 08:37:10;;;;;;;38.83;15.48;;;3.80;99.90;;;;;;4969505;28;20056;-84
2021/12/29 08:39:36;;;;;;;30.50;12.25;;;4.20;99.90;;;;;;4987696;28;20035;-84
2021/12/29 08:42:02;;;;;;;38.13;15.25;;;5.20;99.90;;;;;;4985733;28;20026;-85
2021/12/29 08:44:28;;;;;;;33.22;13.85;;;6.30;99.90;;;;;;4985922;28;20138;-83
2021/12/29 08:46:53;;;;;;;31.17;12.30;;;7.70;99.90;;;;;;4985839;28;20038;-82
2021/12/29 08:49:19;;;;;;;28.80;12.73;;;7.90;99.90;;;;;;4988573;28;20034;-84
2021/12/29 08:51:45;;;;;;;31.08;14.50;;;7.50;99.90;;;;;;4990689;28;20542;-86
2021/12/29 08:54:11;;;;;;;33.30;14.70;;;7.40;99.90;;;;;;4986957;28;20031;-86
2021/12/29 08:56:37;;;;;;;30.15;12.63;;;8.20;99.90;;;;;;4984833;28;20026;-86
2021/12/29 08:59:04;;;;;;;24.60;12.52;;;9.10;99.90;;;;;;4986555;28;20027;-86
2021/12/29 09:01:30;;;;;;;24.73;13.00;;;9.70;99.90;;;;;;4992013;28;20090;-83
2021/12/29 09:03:56;;;;;;;22.42;12.18;;;10.30;99.90;;;;;;4993408;28;20047;-86
2021/12/29 09:06:22;;;;;;;23.85;12.55;;;11.80;99.90;;;;;;4995199;28;20073;-85
2021/12/29 09:08:48;;;;;;;23.85;12.23;;;12.70;99.90;;;;;;4990104;28;20109;-86
2021/12/29 09:11:14;;;;;;;24.05;11.85;;;13.30;99.90;;;;;;4984495;28;20576;-86
2021/12/29 09:13:41;;;;;;;23.42;12.13;;;13.80;99.90;;;;;;4986254;28;20031;-85
2021/12/29 09:16:07;;;;;;;28.38;13.77;;;13.20;99.90;;;;;;4984963;28;20027;-86
2021/12/29 09:18:35;;;;;;;25.42;12.82;;;12.10;99.90;;;;;;4985887;28;20046;-85
2021/12/29 09:21:11;;;;;;;22.05;11.48;;;10.80;99.90;;;;;;4989747;28;20507;-85
2021/12/29 09:23:37;;;;;;;24.63;12.20;;;10.20;99.90;;;;;;4984526;28;20034;-85
2021/12/29 09:26:04;;;;;;;24.88;12.90;;;10.20;99.90;;;;;;4985861;28;20027;-85
2021/12/29 09:28:31;;;;;;;30.05;13.82;;;10.20;99.90;;;;;;4983324;28;20063;-85
2021/12/29 09:30:57;;;;;;;29.17;13.45;;;9.60;99.90;;;;;;4986342;28;20042;-84
2021/12/29 09:33:23;;;;;;;24.42;13.27;;;8.90;99.90;;;;;;4983910;28;20047;-85
2021/12/29 09:35:52;;;;;;;31.40;13.65;;;8.30;99.90;;;;;;4983896;28;20062;-84
2021/12/29 09:38:19;;;;;;;27.85;13.63;;;7.70;99.90;;;;;;4985525;28;20031;-85
2021/12/29 09:40:47;;;;;;;25.95;13.02;;;7.80;99.90;;;;;;4986557;28;20377;-84
2021/12/29 09:43:14;;;;;;;24.52;12.30;;;8.70;99.90;;;;;;4997020;28;20031;-86
2021/12/29 09:45:41;;;;;;;33.78;12.68;;;9.60;99.90;;;;;;4998399;28;20031;-84
2021/12/29 09:48:07;;;;;;;25.65;11.93;;;10.00;99.90;;;;;;4998626;28;20039;-85
2021/12/29 09:50:34;;;;;;;25.08;12.23;;;10.10;99.90;;;;;;4997765;28;20090;-85
2021/12/29 09:53:00;;;;;;;25.80;12.23;;;10.30;99.90;;;;;;4995219;28;20062;-85
2021/12/29 09:55:26;;;;;;;23.45;11.50;;;11.80;99.90;;;;;;4998295;28;20061;-86
2021/12/29 09:57:56;;;;;;;21.27;11.43;;;13.60;99.90;;;;;;4997434;28;20031;-85
2021/12/29 10:00:26;;;;;;;22.85;12.15;;;15.20;99.90;;;;;;4998193;28;20035;-86
2021/12/29 10:02:54;;;;;;;21.85;12.77;;;14.60;99.90;;;;;;4993610;28;20031;-85
2021/12/29 10:05:21;;;;;;;24.33;12.25;;;13.50;99.90;;;;;;4992425;28;20027;-85
2021/12/29 10:08:04;;;;;;;24.98;12.85;;;12.50;99.90;;;;;;4991461;28;20054;-87
2021/12/29 10:10:32;;;;;;;21.58;11.20;;;12.60;99.90;;;;;;4988877;28;20039;-87
2021/12/29 10:12:59;;;;;;;23.85;11.90;;;13.80;99.90;;;;;;4988823;28;20031;-85
2021/12/29 10:15:41;;;;;;;24.23;12.48;;;14.40;99.90;;;;;;4989530;28;20066;-85
2021/12/29 10:18:13;;;;;;;19.50;11.27;;;13.50;99.90;;;;;;4988372;28;20039;-86
2021/12/29 10:20:53;;;;;;;22.92;12.45;;;12.70;99.90;;;;;;4985791;28;20566;-87
2021/12/29 10:23:34;;;;;;;22.15;12.75;;;11.90;99.90;;;;;;4989608;28;20050;-86
2021/12/29 10:26:31;;;;;;;22.63;12.77;;;11.30;99.90;;;;;;4996877;28;20039;-86
2021/12/29 10:29:02;;;;;;;30.20;15.05;;;10.70;99.90;;;;;;4989092;28;20086;-87
2021/12/29 10:31:31;;;;;;;28.88;13.73;;;10.30;99.90;;;;;;4992289;28;20334;-86
2021/12/29 10:34:07;;;;;;;25.83;14.40;;;9.60;99.90;;;;;;4998724;28;20086;-87
2021/12/29 10:36:49;;;;;;;30.27;14.70;;;9.30;99.90;;;;;;4997975;28;20019;-89
2021/12/29 10:39:38;;;;;;;32.08;13.88;;;8.70;99.90;;;;;;4981844;28;20069;-87
2021/12/29 10:42:14;;;;;;;28.55;14.93;;;8.30;99.90;;;;;;4998618;28;20078;-86
2021/12/29 10:44:44;;;;;;;28.73;13.93;;;8.30;99.90;;;;;;4994092;28;20507;-87
2021/12/29 10:47:34;;;;;;;27.63;13.50;;;8.60;99.90;;;;;;4989660;28;20073;-87
2021/12/29 10:50:10;;;;;;;28.88;13.70;;;9.80;99.90;;;;;;4990979;28;20099;-87
2021/12/29 10:52:44;;;;;;;29.65;13.60;;;10.90;99.90;;;;;;4986446;28;20042;-87
2021/12/29 10:55:25;;;;;;;26.35;14.02;;;11.60;99.90;;;;;;4985905;28;20521;-87
2021/12/29 10:58:12;;;;;;;32.80;14.48;;;12.10;99.90;;;;;;4990762;28;20363;-87
2021/12/29 11:00:41;;;;;;;29.80;15.02;;;12.00;99.90;;;;;;4987017;28;20027;-85
2021/12/29 11:03:20;;;;;;;28.90;14.50;;;11.70;99.90;;;;;;4987648;28;20054;-86
2021/12/29 11:05:58;;;;;;;29.00;14.55;;;11.20;99.90;;;;;;4995678;28;20031;-91
2021/12/29 11:08:25;;;;;;;32.47;16.30;;;10.90;99.90;;;;;;4982148;28;20573;-85
2021/12/29 11:10:53;;;;;;;34.75;16.35;;;10.20;99.90;;;;;;4969683;28;20042;-86
2021/12/29 11:13:27;;;;;;;31.02;15.10;;;9.70;99.90;;;;;;4961472;28;20063;-86
2021/12/29 11:15:56;;;;;;;37.97;16.92;;;10.00;99.90;;;;;;4961525;29;20031;-85
2021/12/29 11:18:22;;;;;;;32.80;14.60;;;10.20;99.90;;;;;;4964715;28;20059;-87
2021/12/29 11:20:57;;;;;;;32.80;16.35;;;10.30;99.90;;;;;;4968329;28;20521;-87
2021/12/29 11:23:23;;;;;;;30.92;16.10;;;10.30;99.90;;;;;;4975902;28;20046;-86
2021/12/29 11:25:51;;;;;;;32.22;16.20;;;10.30;99.90;;;;;;4987632;28;20023;-88
2021/12/29 11:28:31;;;;;;;29.15;15.20;;;10.60;99.90;;;;;;4989498;28;20050;-88
2021/12/29 11:31:04;;;;;;;31.20;15.30;;;10.70;99.90;;;;;;4988370;28;20031;-88
2021/12/29 11:33:32;;;;;;;34.42;16.50;;;10.60;99.90;;;;;;4988736;28;20034;-88
2021/12/29 11:35:58;;;;;;;34.08;16.83;;;10.30;99.90;;;;;;4989300;28;20301;-89
2021/12/29 11:38:25;;;;;;;32.58;16.63;;;10.20;99.90;;;;;;4987786;28;20034;-88
2021/12/29 11:40:56;;;;;;;33.47;16.48;;;9.90;99.90;;;;;;4986534;28;20027;-86
2021/12/29 11:43:23;;;;;;;39.63;17.25;;;10.00;99.90;;;;;;4984853;28;20128;-86
2021/12/29 11:45:51;;;;;;;32.15;16.95;;;10.10;99.90;;;;;;4994987;28;20035;-87
2021/12/29 11:48:23;;;;;;;35.40;16.95;;;10.20;99.90;;;;;;4990431;28;20037;-87
2021/12/29 11:50:58;;;;;;;34.25;16.55;;;10.30;99.90;;;;;;4995726;28;20097;-86
2021/12/29 11:53:34;;;;;;;32.90;16.45;;;10.30;99.90;;;;;;4977571;28;20043;-88
2021/12/29 11:56:01;;;;;;;;;;;10.20;99.90;;;;;;4988351;28;20033;-86
2021/12/29 11:58:35;;;;;;;33.47;16.25;;;10.00;99.90;;;;;;4988170;28;19914;-86
2021/12/29 12:01:09;;;;;;;34.13;17.08;;;9.70;99.90;;;;;;4992111;28;20138;-85
2021/12/29 12:03:41;;;;;;;30.63;16.88;;;9.40;99.90;;;;;;4988360;28;20027;-86
2021/12/29 12:06:18;;;;;;;36.58;16.98;;;9.10;99.90;;;;;;4986460;28;20031;-86
2021/12/29 12:08:44;;;;;;;37.58;17.70;;;8.90;99.90;;;;;;4986154;28;20506;-85
2021/12/29 12:11:27;;;;;;;37.38;17.58;;;8.80;99.90;;;;;;4986374;28;20033;-87
2021/12/29 12:13:53;;;;;;;36.70;17.52;;;8.70;99.90;;;;;;4989121;28;20031;-87
2021/12/29 12:16:20;;;;;;;30.98;13.82;;;8.70;99.90;;;;;;4988417;28;20026;-88
2021/12/29 12:18:54;;;;;;;27.60;13.25;;;8.70;99.90;;;;;;4992213;28;20078;-86
2021/12/29 12:21:33;;;;;;;30.80;14.88;;;8.70;99.90;;;;;;4999721;28;20027;-85
2021/12/29 12:24:14;;;;;;;28.67;14.75;;;8.70;99.90;;;;;;4996080;28;20062;-87
2021/12/29 12:26:52;;;;;;;28.35;13.25;;;8.80;99.90;;;;;;4991149;28;20042;-87
2021/12/29 12:29:18;;;;;;;29.42;14.40;;;8.70;99.90;;;;;;4990740;28;20386;-88
2021/12/29 12:31:59;;;;;;;29.67;13.32;;;8.80;99.90;;;;;;4997169;28;20047;-87
2021/12/29 12:34:25;;;;;;;26.05;13.88;;;8.70;99.90;;;;;;4996350;28;20022;-87
2021/12/29 12:36:51;;;;;;;24.50;12.05;;;8.70;99.90;;;;;;4995416;28;20038;-86
2021/12/29 12:39:18;;;;;;;26.10;13.98;;;8.80;99.90;;;;;;4996648;28;20031;-87
2021/12/29 12:41:48;;;;;;;26.98;14.93;;;8.70;99.90;;;;;;4997072;28;20034;-88
2021/12/29 12:44:15;;;;;;;40.42;15.82;;;8.70;99.90;;;;;;4989356;28;20086;-86
2021/12/29 12:46:46;;;;;;;33.90;14.55;;;8.60;99.90;;;;;;4993901;28;20019;-86
2021/12/29 12:49:26;;;;;;;41.58;16.92;;;8.50;99.90;;;;;;4993668;28;20082;-86
2021/12/29 12:52:04;;;;;;;35.85;17.45;;;8.40;99.90;;;;;;4995652;28;20038;-87
2021/12/29 12:54:35;;;;;;;35.20;16.52;;;8.30;99.90;;;;;;4996707;28;20046;-87